createdAt,value
2018-04-17T05:54:36.103Z,1023.71
2018-04-17T05:54:36.671Z,1023.73
2018-04-17T05:54:37.273Z,1023.74
2018-04-17T05:54:37.869Z,1023.74
2018-04-17T05:54:38.469Z,1023.75
2018-04-17T05:54:39.070Z,1023.74
2018-04-17T05:54:39.668Z,1023.78
2018-04-17T05:54:40.269Z,1023.74
2018-04-17T05:54:40.870Z,1023.75
2018-04-17T05:54:41.468Z,1023.71
2018-04-17T05:54:42.068Z,1023.77
2018-04-17T05:54:42.675Z,1023.74
2018-04-17T05:55:37.802Z,1023.72
2018-04-17T05:55:38.308Z,1023.72
2018-04-17T05:55:38.908Z,1023.72
2018-04-17T05:55:39.510Z,1023.72
2018-04-17T05:55:40.108Z,1023.70
2018-04-17T05:55:40.716Z,1023.72
2018-04-17T05:55:41.372Z,1023.71
2018-04-17T05:55:41.915Z,1023.71
2018-04-17T05:56:35.433Z,1023.76
2018-04-17T05:56:36.032Z,1023.71
2018-04-17T05:56:36.628Z,1023.70
2018-04-17T05:56:37.230Z,1023.70
2018-04-17T05:56:37.831Z,1023.76
2018-04-17T05:56:38.431Z,1023.72
2018-04-17T05:56:39.029Z,1023.71
2018-04-17T05:56:39.630Z,1023.76
2018-04-17T05:57:33.084Z,1023.69
2018-04-17T05:57:33.682Z,1023.72
2018-04-17T05:57:34.281Z,1023.74
2018-04-17T05:57:34.881Z,1023.73
2018-04-17T05:57:35.480Z,1023.72
2018-04-17T05:57:36.082Z,1023.73
2018-04-17T05:57:36.680Z,1023.70
2018-04-17T05:57:37.281Z,1023.74
2018-04-17T05:58:30.735Z,1023.73
2018-04-17T05:58:31.333Z,1023.73
2018-04-17T05:58:31.933Z,1023.75
2018-04-17T05:58:32.533Z,1023.76
2018-04-17T05:58:33.132Z,1023.75
2018-04-17T05:58:33.732Z,1023.76
2018-04-17T05:58:34.332Z,1023.74
2018-04-17T05:58:34.932Z,1023.72
2018-04-17T05:59:28.387Z,1023.77
2018-04-17T05:59:28.985Z,1023.77
2018-04-17T05:59:29.585Z,1023.75
2018-04-17T05:59:30.195Z,1023.73
2018-04-17T05:59:30.797Z,1023.69
2018-04-17T05:59:31.384Z,1023.75
2018-04-17T05:59:31.987Z,1023.70
2018-04-17T05:59:32.583Z,1023.75
2018-04-17T06:00:26.069Z,1023.82
2018-04-17T06:00:26.636Z,1023.81
2018-04-17T06:00:27.237Z,1023.82
2018-04-17T06:00:27.835Z,1023.80
2018-04-17T06:00:28.436Z,1023.79
2018-04-17T06:00:29.036Z,1023.81
2018-04-17T06:00:29.636Z,1023.79
2018-04-17T06:00:30.235Z,1023.78
2018-04-17T06:01:23.692Z,1023.74
2018-04-17T06:01:24.288Z,1023.76
2018-04-17T06:01:24.898Z,1023.77
2018-04-17T06:01:25.493Z,1023.76
2018-04-17T06:01:26.100Z,1023.79
2018-04-17T06:01:26.719Z,1023.80
2018-04-17T06:01:27.286Z,1023.80
2018-04-17T06:01:27.886Z,1023.81
2018-04-17T06:02:21.854Z,1023.79
2018-04-17T06:02:22.450Z,1023.76
2018-04-17T06:02:23.053Z,1023.81
2018-04-17T06:02:23.656Z,1023.79
2018-04-17T06:02:24.251Z,1023.79
2018-04-17T06:02:24.851Z,1023.82
2018-04-17T06:02:25.450Z,1023.80
2018-04-17T06:03:20.427Z,1023.77
2018-04-17T06:03:21.031Z,1023.82
2018-04-17T06:03:21.624Z,1023.80
2018-04-17T06:03:22.223Z,1023.82
2018-04-17T06:03:22.829Z,1023.76
2018-04-17T06:03:23.424Z,1023.82
2018-04-17T06:03:24.024Z,1023.82
2018-04-17T06:04:18.488Z,1023.78
2018-04-17T06:04:19.086Z,1023.77
2018-04-17T06:04:19.686Z,1023.78
2018-04-17T06:04:20.297Z,1023.79
2018-04-17T06:04:20.891Z,1023.77
2018-04-17T06:04:21.484Z,1023.79
2018-04-17T06:04:22.085Z,1023.77
2018-04-17T06:04:22.684Z,1023.77
2018-04-17T06:05:16.805Z,1023.78
2018-04-17T06:05:17.363Z,1023.74
2018-04-17T06:05:17.953Z,1023.74
2018-04-17T06:05:18.551Z,1023.75
2018-04-17T06:05:19.154Z,1023.73
2018-04-17T06:05:19.752Z,1023.77
2018-04-17T06:05:20.350Z,1023.74
2018-04-17T06:06:13.897Z,1023.76
2018-04-17T06:06:14.493Z,1023.77
2018-04-17T06:06:15.092Z,1023.74
2018-04-17T06:06:15.693Z,1023.75
2018-04-17T06:06:16.294Z,1023.76
2018-04-17T06:06:16.891Z,1023.77
2018-04-17T06:06:17.503Z,1023.74
2018-04-17T06:06:18.094Z,1023.78
2018-04-17T06:07:12.568Z,1023.75
2018-04-17T06:07:13.166Z,1023.79
2018-04-17T06:07:13.768Z,1023.76
2018-04-17T06:07:14.367Z,1023.77
2018-04-17T06:07:14.968Z,1023.79
2018-04-17T06:07:15.566Z,1023.72
2018-04-17T06:07:16.166Z,1023.71
2018-04-17T06:07:16.769Z,1023.76
2018-04-17T06:08:11.263Z,1023.78
2018-04-17T06:08:11.842Z,1023.76
2018-04-17T06:08:12.443Z,1023.74
2018-04-17T06:08:13.041Z,1023.75
2018-04-17T06:08:13.648Z,1023.75
2018-04-17T06:08:14.242Z,1023.77
2018-04-17T06:08:14.842Z,1023.80
2018-04-17T06:08:15.441Z,1023.76
2018-04-17T06:09:08.902Z,1023.76
2018-04-17T06:09:09.494Z,1023.77
2018-04-17T06:09:10.096Z,1023.76
2018-04-17T06:09:10.696Z,1023.79
2018-04-17T06:09:11.294Z,1023.75
2018-04-17T06:09:11.894Z,1023.76
2018-04-17T06:09:12.500Z,1023.76
2018-04-17T06:09:13.095Z,1023.76
2018-04-17T06:10:07.604Z,1023.79
2018-04-17T06:10:08.170Z,1023.76
2018-04-17T06:10:08.770Z,1023.78
2018-04-17T06:10:09.369Z,1023.76
2018-04-17T06:10:09.970Z,1023.78
2018-04-17T06:10:10.571Z,1023.76
2018-04-17T06:10:11.168Z,1023.77
2018-04-17T06:10:11.769Z,1023.76
2018-04-17T06:11:05.329Z,1023.79
2018-04-17T06:11:05.926Z,1023.77
2018-04-17T06:11:06.525Z,1023.77
2018-04-17T06:11:07.126Z,1023.78
2018-04-17T06:11:07.725Z,1023.77
2018-04-17T06:11:08.325Z,1023.80
2018-04-17T06:11:08.924Z,1023.80
2018-04-17T06:11:09.523Z,1023.78
2018-04-17T06:12:04.023Z,1023.78
2018-04-17T06:12:04.603Z,1023.77
2018-04-17T06:12:05.201Z,1023.82
2018-04-17T06:12:05.800Z,1023.81
2018-04-17T06:12:06.400Z,1023.79
2018-04-17T06:12:06.998Z,1023.82
2018-04-17T06:12:07.618Z,1023.82
2018-04-17T06:12:08.197Z,1023.78
2018-04-17T06:13:02.678Z,1023.81
2018-04-17T06:13:03.275Z,1023.80
2018-04-17T06:13:03.875Z,1023.79
2018-04-17T06:13:04.475Z,1023.81
2018-04-17T06:13:05.089Z,1023.83
2018-04-17T06:13:05.678Z,1023.81
2018-04-17T06:13:06.275Z,1023.81
2018-04-17T06:13:06.875Z,1023.82
2018-04-17T06:14:00.841Z,1023.84
2018-04-17T06:14:01.447Z,1023.85
2018-04-17T06:14:02.038Z,1023.82
2018-04-17T06:14:02.639Z,1023.83
2018-04-17T06:14:03.239Z,1023.82
2018-04-17T06:14:03.840Z,1023.83
2018-04-17T06:14:04.439Z,1023.82
2018-04-17T06:15:17.279Z,1023.85
2018-04-17T06:15:17.833Z,1023.86
2018-04-17T06:15:18.430Z,1023.85
2018-04-17T06:15:19.034Z,1023.85
2018-04-17T06:15:19.631Z,1023.80
2018-04-17T06:15:20.231Z,1023.86
2018-04-17T06:15:20.830Z,1023.85
2018-04-17T06:15:21.457Z,1023.85
2018-04-17T06:16:15.917Z,1023.87
2018-04-17T06:16:16.505Z,1023.86
2018-04-17T06:16:17.111Z,1023.85
2018-04-17T06:16:17.707Z,1023.82
2018-04-17T06:16:18.306Z,1023.86
2018-04-17T06:16:18.905Z,1023.88
2018-04-17T06:16:19.506Z,1023.87
2018-04-17T06:16:20.105Z,1023.86
2018-04-17T06:17:14.592Z,1023.86
2018-04-17T06:17:15.182Z,1023.88
2018-04-17T06:17:15.783Z,1023.85
2018-04-17T06:17:16.387Z,1023.86
2018-04-17T06:17:16.980Z,1023.86
2018-04-17T06:17:17.579Z,1023.88
2018-04-17T06:17:18.179Z,1023.87
2018-04-17T06:17:18.778Z,1023.88
2018-04-17T06:18:13.267Z,1023.86
2018-04-17T06:18:13.857Z,1023.88
2018-04-17T06:18:14.465Z,1023.85
2018-04-17T06:18:15.058Z,1023.85
2018-04-17T06:18:15.657Z,1023.85
2018-04-17T06:18:16.257Z,1023.84
2018-04-17T06:18:16.857Z,1023.86
2018-04-17T06:18:17.464Z,1023.86
2018-04-17T06:19:10.918Z,1023.87
2018-04-17T06:19:11.514Z,1023.87
2018-04-17T06:19:12.109Z,1023.87
2018-04-17T06:19:12.719Z,1023.90
2018-04-17T06:19:13.309Z,1023.87
2018-04-17T06:19:13.918Z,1023.92
2018-04-17T06:19:14.511Z,1023.86
2018-04-17T06:19:15.109Z,1023.89
2018-04-17T06:20:08.566Z,1023.89
2018-04-17T06:20:09.162Z,1023.90
2018-04-17T06:20:09.761Z,1023.89
2018-04-17T06:20:10.365Z,1023.85
2018-04-17T06:20:10.964Z,1023.88
2018-04-17T06:20:11.562Z,1023.87
2018-04-17T06:20:12.161Z,1023.87
2018-04-17T06:20:12.772Z,1023.85
2018-04-17T06:21:07.337Z,1023.84
2018-04-17T06:21:07.844Z,1023.87
2018-04-17T06:21:08.441Z,1023.85
2018-04-17T06:21:09.042Z,1023.87
2018-04-17T06:21:09.641Z,1023.86
2018-04-17T06:21:10.240Z,1023.85
2018-04-17T06:21:10.842Z,1023.87
2018-04-17T06:21:11.441Z,1023.90
2018-04-17T06:22:05.917Z,1023.85
2018-04-17T06:22:06.514Z,1023.86
2018-04-17T06:22:07.112Z,1023.88
2018-04-17T06:22:07.711Z,1023.87
2018-04-17T06:22:08.311Z,1023.91
2018-04-17T06:22:08.913Z,1023.88
2018-04-17T06:22:09.511Z,1023.89
2018-04-17T06:22:10.112Z,1023.91
2018-04-17T06:23:03.570Z,1023.91
2018-04-17T06:23:04.165Z,1023.91
2018-04-17T06:23:04.764Z,1023.89
2018-04-17T06:23:05.364Z,1023.90
2018-04-17T06:23:05.965Z,1023.91
2018-04-17T06:23:06.564Z,1023.91
2018-04-17T06:23:07.169Z,1023.90
2018-04-17T06:23:07.768Z,1023.89
2018-04-17T06:24:01.222Z,1023.92
2018-04-17T06:24:01.822Z,1023.93
2018-04-17T06:24:02.420Z,1023.90
2018-04-17T06:24:03.019Z,1023.88
2018-04-17T06:24:03.616Z,1023.88
2018-04-17T06:24:04.217Z,1023.90
2018-04-17T06:24:04.818Z,1023.87
2018-04-17T06:24:05.426Z,1023.86
2018-04-17T06:24:59.897Z,1023.92
2018-04-17T06:25:00.491Z,1023.91
2018-04-17T06:25:01.091Z,1023.90
2018-04-17T06:25:01.690Z,1023.90
2018-04-17T06:25:02.291Z,1023.89
2018-04-17T06:25:02.892Z,1023.92
2018-04-17T06:25:03.491Z,1023.91
2018-04-17T06:25:04.098Z,1023.90
2018-04-17T06:25:58.612Z,1023.89
2018-04-17T06:25:59.171Z,1023.95
2018-04-17T06:25:59.794Z,1023.93
2018-04-17T06:26:00.398Z,1023.90
2018-04-17T06:26:01.020Z,1023.91
2018-04-17T06:26:01.594Z,1023.90
2018-04-17T06:26:02.170Z,1023.90
2018-04-17T06:26:02.771Z,1023.91
2018-04-17T08:10:12.787Z,1024.90
2018-04-17T08:10:13.289Z,1024.90
2018-04-17T08:10:13.889Z,1024.87
2018-04-17T08:10:14.490Z,1024.91
2018-04-17T08:10:15.106Z,1024.89
2018-04-17T08:10:15.687Z,1024.87
2018-04-17T08:10:16.406Z,1024.89
2018-04-17T08:10:16.885Z,1024.91
2018-04-17T08:10:17.485Z,1024.88
2018-04-17T08:10:18.085Z,1024.92
2018-04-17T08:10:18.705Z,1024.89
2018-04-17T08:10:19.327Z,1024.90
2018-04-17T08:46:52.125Z,1025.17
2018-04-17T08:46:52.664Z,1025.19
2018-04-17T08:46:53.270Z,1025.16
2018-04-17T08:46:53.865Z,1025.20
2018-04-17T08:46:54.468Z,1025.17
2018-04-17T08:46:55.063Z,1025.16
2018-04-17T08:46:55.663Z,1025.15
2018-04-17T08:46:56.276Z,1025.20
2018-04-17T08:46:56.862Z,1025.18
2018-04-17T08:46:57.462Z,1025.16
2018-04-17T08:46:58.062Z,1025.19
2018-04-17T08:46:58.666Z,1025.17
2018-04-17T08:46:59.263Z,1025.17
2018-04-17T08:46:59.862Z,1025.17
2018-04-17T08:47:00.477Z,1025.21
2018-04-17T08:47:55.962Z,1025.17
2018-04-17T08:47:56.568Z,1025.16
2018-04-17T08:47:57.160Z,1025.16
2018-04-17T08:47:57.760Z,1025.16
2018-04-17T08:47:58.360Z,1025.16
2018-04-17T08:47:58.961Z,1025.14
2018-04-17T08:49:13.636Z,1025.15
2018-04-17T08:49:14.182Z,1025.13
2018-04-17T08:49:14.781Z,1025.14
2018-04-17T08:49:15.380Z,1025.13
2018-04-17T08:49:15.984Z,1025.15
2018-04-17T08:49:16.581Z,1025.13
2018-04-17T08:49:17.179Z,1025.17
2018-04-17T08:50:18.233Z,1025.12
2018-04-17T08:50:18.797Z,1025.11
2018-04-17T08:50:19.396Z,1025.12
2018-04-17T08:50:19.996Z,1025.10
2018-04-17T08:50:20.597Z,1025.12
2018-04-17T08:50:21.246Z,1025.10
2018-04-17T08:50:21.794Z,1025.11
2018-04-17T08:50:22.421Z,1025.10
2018-04-17T08:50:23.012Z,1025.12
2018-04-17T08:50:23.595Z,1025.13
2018-04-17T08:50:24.194Z,1025.11
2018-04-17T08:50:24.817Z,1025.12
2018-04-17T08:51:50.362Z,1025.11
2018-04-17T08:51:50.964Z,1025.12
2018-04-17T08:51:51.556Z,1025.12
2018-04-17T08:51:52.181Z,1025.15
2018-04-17T08:51:52.757Z,1025.10
2018-04-17T08:52:49.284Z,1025.15
2018-04-17T08:52:49.842Z,1025.13
2018-04-17T08:52:50.439Z,1025.14
2018-04-17T08:52:51.038Z,1025.16
2018-04-17T08:52:51.638Z,1025.12
2018-04-17T08:52:52.272Z,1025.15
2018-04-17T08:53:47.731Z,1025.18
2018-04-17T08:53:48.315Z,1025.19
2018-04-17T08:53:48.911Z,1025.16
2018-04-17T08:53:49.509Z,1025.17
2018-04-17T08:53:50.111Z,1025.19
2018-04-17T08:53:50.726Z,1025.20
2018-04-17T08:54:44.756Z,1025.16
2018-04-17T08:54:45.349Z,1025.18
2018-04-17T08:54:45.948Z,1025.17
2018-04-17T08:54:46.551Z,1025.13
2018-04-17T08:54:47.149Z,1025.17
2018-04-17T08:54:47.748Z,1025.15
2018-04-17T08:54:48.348Z,1025.16
2018-04-17T08:54:48.954Z,1025.15
2018-04-17T08:55:49.990Z,1025.15
2018-04-17T08:55:50.578Z,1025.13
2018-04-17T08:55:51.184Z,1025.17
2018-04-17T08:55:51.781Z,1025.17
2018-04-17T08:55:52.378Z,1025.18
2018-04-17T08:55:52.986Z,1025.20
2018-04-17T08:55:53.575Z,1025.13
2018-04-17T08:55:54.176Z,1025.19
2018-04-17T08:55:54.778Z,1025.15
2018-04-17T08:55:55.375Z,1025.16
2018-04-17T08:55:55.978Z,1025.15
2018-04-17T08:55:56.575Z,1025.16
2018-04-17T08:56:51.633Z,1025.17
2018-04-17T08:56:52.231Z,1025.21
2018-04-17T08:56:52.824Z,1025.19
2018-04-17T08:56:53.430Z,1025.22
2018-04-17T08:56:54.037Z,1025.21
2018-04-17T08:56:54.633Z,1025.20
2018-04-17T08:57:53.606Z,1025.18
2018-04-17T08:57:54.176Z,1025.17
2018-04-17T08:57:54.775Z,1025.17
2018-04-17T08:57:55.377Z,1025.19
2018-04-17T08:57:55.976Z,1025.20
2018-04-17T08:57:56.578Z,1025.20
2018-04-17T08:57:57.179Z,1025.19
2018-04-17T08:57:57.804Z,1025.18
2018-04-17T08:57:58.374Z,1025.20
2018-04-17T08:57:58.978Z,1025.20
2018-04-17T08:57:59.575Z,1025.20
2018-04-17T08:58:00.174Z,1025.20
2018-04-17T08:58:00.774Z,1025.20
2018-04-17T08:58:01.374Z,1025.20
2018-04-17T08:58:01.973Z,1025.21
2018-04-17T08:58:02.574Z,1025.19
2018-04-17T08:58:03.175Z,1025.21
2018-04-17T08:58:58.707Z,1025.21
2018-04-17T08:58:59.318Z,1025.20
2018-04-17T08:58:59.903Z,1025.19
2018-04-17T08:59:00.505Z,1025.22
2018-04-17T08:59:01.104Z,1025.24
2018-04-17T08:59:01.715Z,1025.21
2018-04-17T09:00:13.282Z,1025.27
2018-04-17T09:00:13.851Z,1025.28
2018-04-17T09:00:14.453Z,1025.24
2018-04-17T09:00:15.053Z,1025.23
2018-04-17T09:00:15.649Z,1025.24
2018-04-17T09:00:16.251Z,1025.23
2018-04-17T09:00:16.849Z,1025.23
2018-04-17T09:00:17.451Z,1025.24
2018-04-17T09:00:18.051Z,1025.26
2018-04-17T09:00:18.653Z,1025.23
2018-04-17T09:00:19.250Z,1025.28
2018-04-17T09:00:19.849Z,1025.25
2018-04-17T09:01:13.366Z,1025.27
2018-04-17T09:01:13.963Z,1025.26
2018-04-17T09:01:14.565Z,1025.27
2018-04-17T09:01:15.162Z,1025.27
2018-04-17T09:01:15.775Z,1025.28
2018-04-17T09:01:16.371Z,1025.27
2018-04-17T09:01:16.962Z,1025.30
2018-04-17T09:01:17.562Z,1025.26
2018-04-17T09:02:11.044Z,1025.27
2018-04-17T09:02:11.613Z,1025.22
2018-04-17T09:02:12.212Z,1025.22
2018-04-17T09:02:12.814Z,1025.20
2018-04-17T09:02:13.417Z,1025.25
2018-04-17T09:02:14.019Z,1025.20
2018-04-17T09:02:14.613Z,1025.23
2018-04-17T09:02:15.215Z,1025.21
2018-04-17T09:03:09.185Z,1025.19
2018-04-17T09:03:09.777Z,1025.21
2018-04-17T09:03:10.375Z,1025.23
2018-04-17T09:03:10.977Z,1025.21
2018-04-17T09:03:11.580Z,1025.22
2018-04-17T09:03:12.187Z,1025.21
2018-04-17T09:03:12.780Z,1025.17
2018-04-17T09:04:06.833Z,1025.20
2018-04-17T09:04:07.426Z,1025.25
2018-04-17T09:04:08.031Z,1025.23
2018-04-17T09:04:08.627Z,1025.24
2018-04-17T09:04:09.226Z,1025.22
2018-04-17T09:04:09.827Z,1025.24
2018-04-17T09:04:10.427Z,1025.25
2018-04-17T09:05:03.971Z,1025.25
2018-04-17T09:05:04.571Z,1025.23
2018-04-17T09:05:05.169Z,1025.23
2018-04-17T09:05:05.770Z,1025.26
2018-04-17T09:05:06.367Z,1025.26
2018-04-17T09:05:06.968Z,1025.28
2018-04-17T09:05:07.571Z,1025.24
2018-04-17T09:05:08.170Z,1025.26
2018-04-17T09:06:31.723Z,1025.25
2018-04-17T09:06:32.256Z,1025.27
2018-04-17T09:06:32.851Z,1025.26
2018-04-17T09:06:33.448Z,1025.28
2018-04-17T09:06:34.054Z,1025.27
2018-04-17T09:06:34.647Z,1025.27
2018-04-17T09:06:35.247Z,1025.26
2018-04-17T09:06:35.848Z,1025.26
2018-04-17T09:06:36.447Z,1025.29
2018-04-17T09:06:37.048Z,1025.33
2018-04-17T09:07:30.539Z,1025.30
2018-04-17T09:07:31.103Z,1025.30
2018-04-17T09:07:31.703Z,1025.30
2018-04-17T09:07:32.304Z,1025.29
2018-04-17T09:07:32.911Z,1025.32
2018-04-17T09:07:33.513Z,1025.30
2018-04-17T09:07:34.105Z,1025.31
2018-04-17T09:07:34.704Z,1025.31
2018-04-17T09:08:29.800Z,1025.27
2018-04-17T09:08:30.395Z,1025.30
2018-04-17T09:08:30.993Z,1025.30
2018-04-17T09:08:31.593Z,1025.30
2018-04-17T09:08:32.191Z,1025.29
2018-04-17T09:46:07.683Z,1025.51
2018-04-17T09:46:08.252Z,1025.51
2018-04-17T09:46:08.825Z,1025.53
2018-04-17T09:46:09.427Z,1025.48
2018-04-17T09:46:10.023Z,1025.50
2018-04-17T09:47:05.016Z,1025.41
2018-04-17T09:47:05.570Z,1025.38
2018-04-17T09:47:06.169Z,1025.39
2018-04-17T09:47:06.769Z,1025.40
2018-04-17T09:47:08.120Z,1025.41
2018-04-17T09:47:08.629Z,1025.40
2018-04-17T09:47:09.228Z,1025.41
2018-04-17T09:48:12.959Z,1025.43
2018-04-17T09:48:13.463Z,1025.39
2018-04-17T09:48:13.961Z,1025.40
2018-04-17T09:48:14.561Z,1025.39
2018-04-17T09:48:15.214Z,1025.40
2018-04-17T09:48:15.760Z,1025.39
2018-04-17T09:48:16.359Z,1025.39
2018-04-17T09:48:16.992Z,1025.34
2018-04-17T09:49:23.529Z,1025.50
2018-04-17T09:49:24.119Z,1025.52
2018-04-17T09:49:24.721Z,1025.53
2018-04-17T09:50:19.765Z,1025.47
2018-04-17T09:50:20.338Z,1025.46
2018-04-17T09:50:20.955Z,1025.50
2018-04-17T09:50:21.540Z,1025.49
2018-04-17T09:50:22.155Z,1025.51
2018-04-17T09:50:22.771Z,1025.48
2018-04-17T09:51:17.327Z,1025.44
2018-04-17T09:51:17.893Z,1025.45
2018-04-17T09:51:18.488Z,1025.49
2018-04-17T09:51:19.095Z,1025.48
2018-04-17T09:51:19.697Z,1025.47
2018-04-17T09:51:20.300Z,1025.46
2018-04-17T09:51:20.889Z,1025.47
2018-04-17T09:52:17.435Z,1025.42
2018-04-17T09:52:17.997Z,1025.47
2018-04-17T09:52:18.596Z,1025.42
2018-04-17T09:53:13.108Z,1025.47
2018-04-17T09:53:13.703Z,1025.45
2018-04-17T09:53:14.304Z,1025.48
2018-04-17T09:53:14.915Z,1025.47
2018-04-17T09:53:15.528Z,1025.46
2018-04-17T09:53:16.137Z,1025.49
2018-04-17T09:53:16.754Z,1025.45
2018-04-17T09:53:17.303Z,1025.43
2018-04-17T09:54:10.761Z,1025.55
2018-04-17T09:54:11.357Z,1025.51
2018-04-17T09:54:11.957Z,1025.52
2018-04-17T09:54:12.556Z,1025.47
2018-04-17T09:54:13.159Z,1025.50
2018-04-17T09:54:13.756Z,1025.50
2018-04-17T09:54:14.357Z,1025.50
2018-04-17T09:54:14.957Z,1025.50
2018-04-17T09:55:09.436Z,1025.52
2018-04-17T09:55:10.032Z,1025.51
2018-04-17T09:55:10.642Z,1025.53
2018-04-17T09:55:11.238Z,1025.53
2018-04-17T09:55:11.831Z,1025.54
2018-04-17T09:55:12.470Z,1025.54
2018-04-17T09:55:13.032Z,1025.52
2018-04-17T09:55:13.633Z,1025.50
2018-04-17T09:56:07.268Z,1025.46
2018-04-17T09:56:07.684Z,1025.47
2018-04-17T09:56:08.297Z,1025.44
2018-04-17T09:56:08.887Z,1025.44
2018-04-17T09:56:09.522Z,1025.42
2018-04-17T09:56:10.102Z,1025.47
2018-04-17T09:56:10.683Z,1025.46
2018-04-17T09:56:11.286Z,1025.44
2018-04-17T09:57:04.745Z,1025.57
2018-04-17T09:57:05.375Z,1025.53
2018-04-17T09:57:05.937Z,1025.57
2018-04-17T09:57:06.648Z,1025.53
2018-04-17T09:57:07.163Z,1025.50
2018-04-17T09:57:07.774Z,1025.56
2018-04-17T09:57:08.380Z,1025.50
2018-04-17T09:57:08.941Z,1025.52
2018-04-17T09:58:03.952Z,1025.53
2018-04-17T09:58:04.522Z,1025.52
2018-04-17T09:58:05.128Z,1025.52
2018-04-17T09:58:05.722Z,1025.53
2018-04-17T09:58:06.323Z,1025.50
2018-04-17T09:58:06.924Z,1025.52
2018-04-17T09:59:00.964Z,1025.54
2018-04-17T09:59:01.564Z,1025.53
2018-04-17T09:59:02.161Z,1025.51
2018-04-17T09:59:02.760Z,1025.50
2018-04-17T09:59:03.361Z,1025.52
2018-04-17T09:59:03.961Z,1025.53
2018-04-17T09:59:04.561Z,1025.53
2018-04-17T09:59:05.163Z,1025.54
2018-04-17T09:59:58.619Z,1025.45
2018-04-17T09:59:59.235Z,1025.46
2018-04-17T09:59:59.813Z,1025.46
2018-04-17T10:00:00.412Z,1025.41
2018-04-17T10:00:01.013Z,1025.45
2018-04-17T10:00:01.614Z,1025.44
2018-04-17T10:00:02.236Z,1025.42
2018-04-17T10:00:02.813Z,1025.45
2018-04-17T10:00:57.289Z,1025.47
2018-04-17T10:00:57.888Z,1025.47
2018-04-17T10:00:58.489Z,1025.47
2018-04-17T10:00:59.090Z,1025.49
2018-04-17T10:00:59.688Z,1025.45
2018-04-17T10:01:00.387Z,1025.50
2018-04-17T10:01:00.891Z,1025.50
2018-04-17T10:01:01.488Z,1025.48
2018-04-17T10:01:54.942Z,1025.44
2018-04-17T10:01:55.541Z,1025.45
2018-04-17T10:01:56.140Z,1025.46
2018-04-17T10:01:56.741Z,1025.46
2018-04-17T10:01:57.340Z,1025.42
2018-04-17T10:01:57.943Z,1025.45
2018-04-17T10:01:58.541Z,1025.45
2018-04-17T10:01:59.142Z,1025.42
2018-04-17T10:02:53.688Z,1025.54
2018-04-17T10:02:54.216Z,1025.52
2018-04-17T10:02:54.818Z,1025.51
2018-04-17T10:02:55.416Z,1025.51
2018-04-17T10:02:56.016Z,1025.53
2018-04-17T10:02:56.618Z,1025.51
2018-04-17T10:02:57.230Z,1025.56
2018-04-17T10:02:57.817Z,1025.51
2018-04-17T10:03:51.322Z,1025.42
2018-04-17T10:03:51.870Z,1025.43
2018-04-17T10:03:52.466Z,1025.41
2018-04-17T10:03:53.066Z,1025.40
2018-04-17T10:03:53.667Z,1025.39
2018-04-17T10:03:54.265Z,1025.42
2018-04-17T10:03:54.866Z,1025.43
2018-04-17T10:03:55.468Z,1025.41
2018-04-17T10:04:49.948Z,1025.40
2018-04-17T10:04:50.551Z,1025.37
2018-04-17T10:04:51.143Z,1025.37
2018-04-17T10:04:51.742Z,1025.34
2018-04-17T10:04:52.344Z,1025.39
2018-04-17T10:04:52.943Z,1025.39
2018-04-17T10:04:53.547Z,1025.39
2018-04-17T10:04:54.147Z,1025.38
2018-04-17T10:05:47.598Z,1025.48
2018-04-17T10:05:48.199Z,1025.47
2018-04-17T10:05:48.798Z,1025.47
2018-04-17T10:05:49.398Z,1025.49
2018-04-17T10:05:49.999Z,1025.51
2018-04-17T10:05:50.596Z,1025.48
2018-04-17T10:05:51.196Z,1025.49
2018-04-17T10:05:51.798Z,1025.51
2018-04-17T10:06:46.273Z,1025.45
2018-04-17T10:06:46.868Z,1025.41
2018-04-17T10:06:47.470Z,1025.45
2018-04-17T10:06:48.069Z,1025.47
2018-04-17T10:06:48.670Z,1025.44
2018-04-17T10:06:49.268Z,1025.44
2018-04-17T10:06:49.868Z,1025.41
2018-04-17T10:06:50.470Z,1025.43
2018-04-17T10:07:44.949Z,1025.38
2018-04-17T10:07:45.546Z,1025.43
2018-04-17T10:07:46.146Z,1025.41
2018-04-17T10:07:46.746Z,1025.45
2018-04-17T10:07:47.346Z,1025.41
2018-04-17T10:07:47.945Z,1025.45
2018-04-17T10:07:48.545Z,1025.40
2018-04-17T10:07:49.148Z,1025.44
2018-04-17T10:08:42.665Z,1025.43
2018-04-17T10:08:43.210Z,1025.45
2018-04-17T10:08:43.837Z,1025.45
2018-04-17T10:08:44.461Z,1025.44
2018-04-17T10:08:45.080Z,1025.43
2018-04-17T10:08:45.653Z,1025.43
2018-04-17T10:08:46.224Z,1025.43
2018-04-17T10:08:46.816Z,1025.39
2018-04-17T10:09:40.355Z,1025.44
2018-04-17T10:09:40.955Z,1025.42
2018-04-17T10:09:41.554Z,1025.44
2018-04-17T10:09:42.152Z,1025.44
2018-04-17T10:09:42.753Z,1025.46
2018-04-17T10:09:43.353Z,1025.45
2018-04-17T10:09:43.956Z,1025.43
2018-04-17T10:09:44.554Z,1025.42
2018-04-17T10:10:38.110Z,1025.38
2018-04-17T10:10:38.708Z,1025.41
2018-04-17T10:10:39.306Z,1025.40
2018-04-17T10:10:39.908Z,1025.38
2018-04-17T10:10:40.508Z,1025.37
2018-04-17T10:10:41.110Z,1025.39
2018-04-17T10:10:41.706Z,1025.42
2018-04-17T10:10:42.307Z,1025.41
2018-04-17T10:11:35.864Z,1025.38
2018-04-17T10:11:36.462Z,1025.43
2018-04-17T10:11:37.061Z,1025.39
2018-04-17T10:11:37.665Z,1025.42
2018-04-17T10:11:38.261Z,1025.44
2018-04-17T10:11:38.864Z,1025.43
2018-04-17T10:11:39.464Z,1025.44
2018-04-17T10:11:40.061Z,1025.44
2018-04-17T10:12:33.622Z,1025.46
2018-04-17T10:12:34.216Z,1025.45
2018-04-17T10:12:34.816Z,1025.48
2018-04-17T10:12:35.415Z,1025.46
2018-04-17T10:12:36.018Z,1025.45
2018-04-17T10:12:36.616Z,1025.46
2018-04-17T10:12:37.216Z,1025.47
2018-04-17T10:12:37.815Z,1025.46
2018-04-17T10:13:31.401Z,1025.46
2018-04-17T10:13:31.970Z,1025.46
2018-04-17T10:13:32.571Z,1025.49
2018-04-17T10:13:33.169Z,1025.47
2018-04-17T10:13:33.770Z,1025.45
2018-04-17T10:13:34.373Z,1025.45
2018-04-17T10:13:34.969Z,1025.44
2018-04-17T10:13:35.571Z,1025.45
2018-04-17T10:14:29.126Z,1025.45
2018-04-17T10:14:29.724Z,1025.43
2018-04-17T10:14:30.325Z,1025.44
2018-04-17T10:14:30.926Z,1025.47
2018-04-17T10:14:31.523Z,1025.47
2018-04-17T10:14:32.123Z,1025.46
2018-04-17T10:14:32.726Z,1025.46
2018-04-17T10:14:33.324Z,1025.44
2018-04-17T10:15:27.800Z,1025.44
2018-04-17T10:15:28.403Z,1025.42
2018-04-17T10:15:29.000Z,1025.42
2018-04-17T10:15:29.597Z,1025.39
2018-04-17T10:15:30.198Z,1025.42
2018-04-17T10:15:30.800Z,1025.42
2018-04-17T10:15:31.399Z,1025.46
2018-04-17T10:15:31.999Z,1025.42
2018-04-17T10:16:25.453Z,1025.38
2018-04-17T10:16:26.052Z,1025.38
2018-04-17T10:16:26.652Z,1025.39
2018-04-17T10:16:27.251Z,1025.40
2018-04-17T10:16:27.852Z,1025.36
2018-04-17T10:16:28.452Z,1025.39
2018-04-17T10:16:29.050Z,1025.40
2018-04-17T10:16:29.652Z,1025.42
2018-04-17T10:17:23.260Z,1025.31
2018-04-17T10:17:23.812Z,1025.31
2018-04-17T10:17:24.431Z,1025.31
2018-04-17T10:17:25.038Z,1025.30
2018-04-17T10:17:25.657Z,1025.28
2018-04-17T10:17:26.241Z,1025.27
2018-04-17T10:17:26.843Z,1025.31
2018-04-17T10:17:27.442Z,1025.28
2018-04-17T10:18:21.910Z,1025.30
2018-04-17T10:18:22.485Z,1025.29
2018-04-17T10:18:23.081Z,1025.33
2018-04-17T10:18:23.680Z,1025.29
2018-04-17T10:18:24.278Z,1025.30
2018-04-17T10:18:24.881Z,1025.31
2018-04-17T10:18:25.480Z,1025.30
2018-04-17T10:18:26.079Z,1025.29
2018-04-17T10:19:20.558Z,1025.34
2018-04-17T10:19:21.157Z,1025.39
2018-04-17T10:19:21.756Z,1025.38
2018-04-17T10:19:22.355Z,1025.40
2018-04-17T10:19:22.958Z,1025.40
2018-04-17T10:19:23.556Z,1025.39
2018-04-17T10:19:24.155Z,1025.37
2018-04-17T10:19:24.757Z,1025.36
2018-04-17T10:20:18.212Z,1025.37
2018-04-17T10:20:18.809Z,1025.38
2018-04-17T10:20:19.409Z,1025.39
2018-04-17T10:20:20.014Z,1025.36
2018-04-17T10:20:20.609Z,1025.38
2018-04-17T10:20:21.207Z,1025.34
2018-04-17T10:20:21.809Z,1025.38
2018-04-17T10:20:22.413Z,1025.37
2018-04-17T10:21:15.967Z,1025.36
2018-04-17T10:21:16.564Z,1025.37